Time;durP1;ratioP1;P1;durP2;ratioP2;P2;SDS_P1;SDS_P2;PMS_P1;PMS_P2;Temp;Humidity;BMP_temperature;BMP_pressure;BME280_temperature;BME280_humidity;BME280_pressure;Samples;Min_cycle;Max_cycle;Signal;HPM_P1;HPM_P2
2023/07/31 00:02:23;;;;;;;3.22;1.88;;;20.60;99.90;;;;;;5059692;28;20228;-72
2023/07/31 00:05:12;;;;;;;1.63;1.52;;;20.70;99.90;;;;;;5079068;28;20224;-71
2023/07/31 00:08:01;;;;;;;2.53;2.10;;;20.70;99.90;;;;;;5062034;28;20278;-72
2023/07/31 00:10:56;;;;;;;2.88;1.58;;;20.60;99.90;;;;;;5063748;28;20222;-74
2023/07/31 00:13:45;;;;;;;3.72;2.30;;;20.60;99.90;;;;;;5073713;28;20243;-72
2023/07/31 00:16:34;;;;;;;4.32;2.05;;;20.50;99.90;;;;;;5069109;28;20339;-73
2023/07/31 00:19:24;;;;;;;4.70;2.17;;;20.50;99.90;;;;;;5058614;28;20223;-72
2023/07/31 00:22:13;;;;;;;3.55;2.00;;;20.50;99.90;;;;;;5074536;28;20701;-72
2023/07/31 00:25:02;;;;;;;2.00;1.80;;;20.40;99.90;;;;;;5081073;28;20223;-72
2023/07/31 00:27:51;;;;;;;2.85;2.00;;;20.30;99.90;;;;;;5076182;28;20216;-73
2023/07/31 00:30:41;;;;;;;3.60;2.00;;;20.30;99.90;;;;;;5075183;28;20240;-74
2023/07/31 00:33:30;;;;;;;2.00;1.80;;;20.30;99.90;;;;;;5081769;28;20304;-73
2023/07/31 00:36:21;;;;;;;2.67;2.00;;;20.30;99.90;;;;;;5072274;28;20227;-74
2023/07/31 00:39:10;;;;;;;3.60;1.95;;;20.40;99.90;;;;;;5067533;28;20302;-73
2023/07/31 00:41:59;;;;;;;5.13;1.77;;;20.40;99.90;;;;;;5076089;28;20258;-72
2023/07/31 00:44:48;;;;;;;2.78;2.10;;;20.30;99.90;;;;;;5057611;28;20864;-73
2023/07/31 00:47:37;;;;;;;2.58;1.90;;;20.30;99.90;;;;;;5076422;28;20721;-74
2023/07/31 00:50:26;;;;;;;2.25;1.92;;;20.30;99.90;;;;;;5073507;28;20239;-73
2023/07/31 00:53:17;;;;;;;2.85;1.90;;;20.30;99.90;;;;;;5070402;28;20666;-73
2023/07/31 00:56:06;;;;;;;2.47;1.98;;;20.30;99.90;;;;;;5046896;28;20548;-73
2023/07/31 00:58:56;;;;;;;4.53;2.30;;;20.30;99.90;;;;;;5078814;28;20227;-72
2023/07/31 01:01:47;;;;;;;3.25;2.00;;;20.20;99.90;;;;;;5071557;28;20321;-73
2023/07/31 01:04:36;;;;;;;3.97;2.20;;;20.20;99.90;;;;;;5076012;28;20224;-73
2023/07/31 01:07:36;;;;;;;3.72;1.92;;;20.10;99.90;;;;;;5079097;28;20227;-72
2023/07/31 01:10:30;;;;;;;3.55;1.90;;;20.10;99.90;;;;;;5065379;28;20377;-73
2023/07/31 01:13:21;;;;;;;2.28;2.00;;;20.10;99.90;;;;;;5079169;28;20271;-73
2023/07/31 01:16:09;;;;;;;4.90;2.20;;;20.00;99.90;;;;;;5067108;28;20304;-72
2023/07/31 01:18:58;;;;;;;2.95;2.15;;;20.10;99.90;;;;;;5064325;28;20219;-72
2023/07/31 01:22:03;;;;;;;2.72;2.38;;;20.10;99.90;;;;;;5083702;28;20575;-72
2023/07/31 01:25:17;;;;;;;2.28;1.95;;;20.00;99.90;;;;;;5066698;28;20234;-73
2023/07/31 01:28:13;;;;;;;3.08;2.30;;;20.00;99.90;;;;;;5067817;28;20221;-71
2023/07/31 01:31:05;;;;;;;3.83;2.00;;;20.00;99.90;;;;;;5076487;28;20729;-71
2023/07/31 01:33:57;;;;;;;2.30;2.10;;;20.00;99.90;;;;;;5082915;28;20219;-71
2023/07/31 01:36:46;;;;;;;2.30;2.10;;;20.00;99.90;;;;;;5064996;28;20224;-71
2023/07/31 01:39:34;;;;;;;4.43;2.33;;;19.90;99.90;;;;;;5061794;28;20310;-71
2023/07/31 01:42:24;;;;;;;4.72;2.30;;;19.90;99.90;;;;;;5066976;28;20227;-73
2023/07/31 01:45:15;;;;;;;2.90;2.22;;;19.90;99.90;;;;;;5073774;28;20236;-72
2023/07/31 01:48:04;;;;;;;3.17;2.30;;;19.90;99.90;;;;;;5080506;28;20246;-73
2023/07/31 01:50:53;;;;;;;4.25;2.20;;;19.90;99.90;;;;;;5078758;28;20371;-73
2023/07/31 01:53:42;;;;;;;2.45;2.25;;;19.90;99.90;;;;;;5064823;28;20215;-70
2023/07/31 01:56:31;;;;;;;3.30;2.47;;;19.80;99.90;;;;;;5065009;28;20330;-71
2023/07/31 01:59:20;;;;;;;3.92;2.42;;;19.80;99.90;;;;;;5079588;28;20340;-71
2023/07/31 02:02:10;;;;;;;5.80;2.63;;;19.80;99.90;;;;;;5066161;28;20215;-72
2023/07/31 02:04:59;;;;;;;4.20;2.50;;;19.70;99.90;;;;;;5061917;28;20829;-72
2023/07/31 02:07:48;;;;;;;3.42;2.35;;;19.70;99.90;;;;;;5073290;28;20232;-73
2023/07/31 02:10:37;;;;;;;4.10;2.40;;;19.70;99.90;;;;;;5053496;28;20236;-73
2023/07/31 02:13:27;;;;;;;4.82;2.50;;;19.60;99.90;;;;;;5066322;28;20245;-73
2023/07/31 02:16:15;;;;;;;2.65;2.35;;;19.60;99.90;;;;;;5076031;28;20231;-73
2023/07/31 02:19:06;;;;;;;2.70;2.35;;;19.60;99.90;;;;;;5075298;28;20227;-73
2023/07/31 02:21:55;;;;;;;4.97;2.40;;;19.60;99.90;;;;;;5075218;28;20258;-73
2023/07/31 02:24:44;;;;;;;4.20;2.50;;;19.50;99.90;;;;;;5079537;28;20220;-73
2023/07/31 02:27:33;;;;;;;6.15;2.40;;;19.60;99.90;;;;;;5067356;28;20894;-73
2023/07/31 02:30:22;;;;;;;3.03;2.70;;;19.50;99.90;;;;;;5076920;28;20930;-73
2023/07/31 02:33:11;;;;;;;3.67;2.95;;;19.50;99.90;;;;;;5063396;28;20231;-72
2023/07/31 02:36:01;;;;;;;5.63;2.95;;;19.50;99.90;;;;;;5062581;28;21105;-71
2023/07/31 02:38:51;;;;;;;3.95;2.70;;;19.40;99.90;;;;;;5083789;28;20227;-70
2023/07/31 02:41:41;;;;;;;3.85;2.67;;;19.50;99.90;;;;;;5064258;28;20217;-71
2023/07/31 02:44:30;;;;;;;4.15;3.00;;;19.50;99.90;;;;;;5062007;28;20292;-72
2023/07/31 02:47:19;;;;;;;3.40;2.80;;;19.50;99.90;;;;;;5076007;28;20732;-73
2023/07/31 02:50:08;;;;;;;4.10;2.72;;;19.50;99.90;;;;;;5077778;28;20276;-70
2023/07/31 02:52:59;;;;;;;6.88;2.80;;;19.60;99.90;;;;;;5073884;28;20687;-71
2023/07/31 02:55:48;;;;;;;5.93;3.10;;;19.60;99.90;;;;;;5052783;28;20223;-70
2023/07/31 02:58:37;;;;;;;3.20;2.90;;;19.60;99.90;;;;;;5075813;28;20319;-71
2023/07/31 03:01:28;;;;;;;5.28;3.20;;;19.60;99.90;;;;;;5069448;28;20707;-71
2023/07/31 03:04:17;;;;;;;5.72;2.95;;;19.50;99.90;;;;;;5066645;28;20797;-71
2023/07/31 03:07:07;;;;;;;5.50;2.97;;;19.50;99.90;;;;;;5064178;28;20215;-70
2023/07/31 03:09:57;;;;;;;8.48;3.35;;;19.50;99.90;;;;;;5077221;28;20275;-70
2023/07/31 03:12:48;;;;;;;4.03;2.92;;;19.50;99.90;;;;;;5061832;28;20517;-71
2023/07/31 03:15:37;;;;;;;5.15;3.00;;;19.60;99.90;;;;;;5063017;28;20219;-71
2023/07/31 03:18:28;;;;;;;4.38;3.40;;;19.50;99.90;;;;;;5064661;28;20235;-71
2023/07/31 03:21:17;;;;;;;3.53;2.92;;;19.50;99.90;;;;;;5079133;28;20385;-71
2023/07/31 03:24:06;;;;;;;3.90;2.80;;;19.60;99.90;;;;;;5050679;28;20698;-71
2023/07/31 03:26:56;;;;;;;5.00;3.08;;;19.60;99.90;;;;;;5069122;28;20239;-71
2023/07/31 03:29:45;;;;;;;5.93;3.05;;;19.60;99.90;;;;;;5063016;28;20263;-70
2023/07/31 03:32:34;;;;;;;5.50;3.00;;;19.60;99.90;;;;;;5060108;28;20614;-72
2023/07/31 03:35:23;;;;;;;3.78;2.92;;;19.60;99.90;;;;;;5074600;28;20227;-72
2023/07/31 03:38:12;;;;;;;5.32;3.00;;;19.60;99.90;;;;;;5071876;28;20231;-72
2023/07/31 03:41:02;;;;;;;3.80;3.10;;;19.40;99.90;;;;;;5059270;28;20909;-72
2023/07/31 03:43:53;;;;;;;5.70;2.80;;;19.50;99.90;;;;;;5059476;28;20648;-71
2023/07/31 03:46:42;;;;;;;4.20;3.00;;;19.50;99.90;;;;;;5075871;28;20255;-72
2023/07/31 03:49:31;;;;;;;4.95;2.90;;;19.50;99.90;;;;;;5061839;28;20227;-73
2023/07/31 03:52:20;;;;;;;4.10;2.92;;;19.60;99.90;;;;;;5072493;28;20215;-74
2023/07/31 03:55:09;;;;;;;4.13;2.92;;;19.50;99.90;;;;;;5058837;28;20233;-73
2023/07/31 03:57:59;;;;;;;4.03;2.97;;;19.60;99.90;;;;;;5070169;28;20222;-73
2023/07/31 04:00:50;;;;;;;3.53;3.00;;;19.60;99.90;;;;;;5075549;28;20239;-73
2023/07/31 04:03:39;;;;;;;4.03;3.00;;;19.50;99.90;;;;;;5078169;28;20219;-73
2023/07/31 04:06:28;;;;;;;5.80;3.10;;;19.50;99.90;;;;;;5059541;28;20238;-74
2023/07/31 04:09:17;;;;;;;3.50;2.70;;;19.60;99.90;;;;;;5055901;28;20243;-74
2023/07/31 04:12:07;;;;;;;4.47;2.78;;;19.60;99.90;;;;;;5069087;28;21076;-73
2023/07/31 04:14:55;;;;;;;4.65;2.80;;;19.60;99.90;;;;;;5064986;28;20239;-74
2023/07/31 04:17:46;;;;;;;3.67;2.78;;;19.60;99.90;;;;;;5076787;28;20227;-74
2023/07/31 04:20:35;;;;;;;6.57;3.35;;;19.50;99.90;;;;;;5063393;28;20269;-73
2023/07/31 04:23:23;;;;;;;5.70;3.10;;;19.60;99.90;;;;;;5082748;28;20235;-72
2023/07/31 04:26:12;;;;;;;3.08;2.70;;;19.50;99.90;;;;;;5073591;28;20884;-73
2023/07/31 04:29:01;;;;;;;5.88;2.90;;;19.50;99.90;;;;;;5061041;28;20222;-72
2023/07/31 04:31:51;;;;;;;6.25;3.22;;;19.50;99.90;;;;;;5058232;28;20734;-72
2023/07/31 04:34:42;;;;;;;5.18;3.33;;;19.50;99.90;;;;;;5071430;28;20363;-72
2023/07/31 04:37:31;;;;;;;4.03;2.67;;;19.50;99.90;;;;;;5061187;28;20212;-73
2023/07/31 04:40:20;;;;;;;8.25;3.20;;;19.60;99.90;;;;;;5062835;28;20273;-73
2023/07/31 04:43:09;;;;;;;3.90;2.75;;;19.50;99.90;;;;;;5083054;28;20299;-74
2023/07/31 04:45:58;;;;;;;4.22;2.78;;;19.50;99.90;;;;;;5064507;28;20232;-73
2023/07/31 04:48:47;;;;;;;6.32;3.22;;;19.40;99.90;;;;;;5082346;28;20216;-74
2023/07/31 04:51:38;;;;;;;4.80;2.88;;;19.50;99.90;;;;;;5064930;28;20223;-72
2023/07/31 04:54:27;;;;;;;3.78;2.83;;;19.60;99.90;;;;;;5075324;28;20224;-72
2023/07/31 04:57:16;;;;;;;3.83;3.20;;;19.60;99.90;;;;;;5079173;28;20251;-73
2023/07/31 05:00:06;;;;;;;7.03;3.05;;;19.60;99.90;;;;;;5080724;28;20214;-73
2023/07/31 05:02:55;;;;;;;4.45;2.80;;;19.60;99.90;;;;;;5073614;28;20955;-72
2023/07/31 05:05:44;;;;;;;5.88;2.92;;;19.60;99.90;;;;;;5082143;28;20236;-72
2023/07/31 05:08:34;;;;;;;5.78;3.40;;;19.70;99.90;;;;;;5083171;28;21166;-73
2023/07/31 05:11:23;;;;;;;7.82;3.03;;;19.70;99.90;;;;;;5064084;28;20998;-73
2023/07/31 05:14:12;;;;;;;5.78;3.22;;;19.70;99.90;;;;;;5077248;28;20306;-73
2023/07/31 05:17:01;;;;;;;8.77;2.83;;;19.80;99.90;;;;;;5067391;28;20219;-74
2023/07/31 05:19:50;;;;;;;8.75;3.13;;;19.80;99.90;;;;;;5083739;28;20224;-74
2023/07/31 05:22:39;;;;;;;5.60;3.40;;;19.80;99.90;;;;;;5073066;28;20286;-73
2023/07/31 05:25:29;;;;;;;5.50;2.88;;;19.80;99.90;;;;;;5079381;28;20224;-73
2023/07/31 05:28:18;;;;;;;8.95;3.38;;;19.90;99.90;;;;;;5077427;28;20671;-73
2023/07/31 05:31:07;;;;;;;6.70;3.42;;;20.00;99.90;;;;;;5082897;28;20220;-74
2023/07/31 05:33:57;;;;;;;3.88;2.80;;;20.00;99.90;;;;;;5068222;28;20219;-73
2023/07/31 05:36:45;;;;;;;5.60;3.25;;;20.00;99.90;;;;;;5070349;28;20228;-72
2023/07/31 05:39:34;;;;;;;4.82;2.80;;;20.00;99.90;;;;;;5060864;28;20220;-73
2023/07/31 05:42:25;;;;;;;4.90;3.08;;;20.00;99.90;;;;;;5070194;28;20840;-73
2023/07/31 05:45:14;;;;;;;6.18;3.03;;;20.00;99.90;;;;;;5072959;28;20691;-75
2023/07/31 05:48:03;;;;;;;5.40;3.05;;;20.00;99.90;;;;;;5078952;28;20239;-78
2023/07/31 05:50:53;;;;;;;6.35;3.00;;;20.00;99.90;;;;;;5083245;28;20346;-71
2023/07/31 05:53:43;;;;;;;8.10;2.75;;;20.00;99.90;;;;;;5079702;28;20328;-71
2023/07/31 05:56:33;;;;;;;6.28;2.63;;;20.00;99.90;;;;;;5073907;28;20219;-72
2023/07/31 05:59:24;;;;;;;3.92;2.75;;;20.10;99.90;;;;;;5058937;28;20220;-73
2023/07/31 06:02:13;;;;;;;8.02;2.97;;;20.20;99.90;;;;;;5062095;28;20228;-72
2023/07/31 06:05:03;;;;;;;6.32;2.80;;;20.30;99.90;;;;;;5076572;28;20220;-72
2023/07/31 06:07:52;;;;;;;4.10;2.58;;;20.30;99.90;;;;;;5063187;28;20219;-72
2023/07/31 06:10:41;;;;;;;3.80;2.67;;;20.30;99.90;;;;;;5076259;28;20330;-72
2023/07/31 06:13:30;;;;;;;5.95;3.08;;;20.30;99.90;;;;;;5082905;28;20890;-72
2023/07/31 06:16:21;;;;;;;5.22;3.08;;;20.30;99.90;;;;;;5069665;28;20284;-72
2023/07/31 06:19:10;;;;;;;5.93;2.88;;;20.30;99.90;;;;;;5060500;28;20224;-72
2023/07/31 06:21:59;;;;;;;6.75;2.88;;;20.40;99.90;;;;;;5062508;28;20238;-74
2023/07/31 06:24:48;;;;;;;9.45;3.03;;;20.30;99.90;;;;;;5079145;28;20649;-71
2023/07/31 06:27:37;;;;;;;5.55;3.13;;;20.20;99.90;;;;;;5076824;28;20231;-72
2023/07/31 06:30:27;;;;;;;4.85;3.30;;;20.30;99.90;;;;;;5076563;28;20228;-73
2023/07/31 06:33:18;;;;;;;6.93;3.53;;;20.30;99.90;;;;;;5073598;28;20240;-73
2023/07/31 06:36:06;;;;;;;7.95;3.25;;;20.20;99.90;;;;;;5072309;28;20211;-72
2023/07/31 06:38:55;;;;;;;6.32;2.90;;;20.10;99.90;;;;;;5063413;28;20594;-72
2023/07/31 06:41:45;;;;;;;5.10;3.13;;;20.00;99.90;;;;;;5074175;28;20245;-72
2023/07/31 06:44:34;;;;;;;6.38;3.17;;;20.00;99.90;;;;;;5063006;28;20306;-73
2023/07/31 06:47:23;;;;;;;6.53;3.28;;;20.00;99.90;;;;;;5075996;28;20227;-74
2023/07/31 06:50:13;;;;;;;5.25;3.03;;;20.00;99.90;;;;;;5050308;28;20227;-73
2023/07/31 06:53:02;;;;;;;4.93;3.72;;;19.90;99.90;;;;;;5075536;28;20224;-74
2023/07/31 06:55:51;;;;;;;7.75;3.30;;;19.90;99.90;;;;;;5074466;28;20599;-71
2023/07/31 06:58:41;;;;;;;6.43;3.22;;;19.80;99.90;;;;;;5076394;28;20409;-73
2023/07/31 07:01:30;;;;;;;8.20;3.30;;;19.90;99.90;;;;;;5072337;28;20247;-74
2023/07/31 07:04:18;;;;;;;5.47;3.10;;;20.00;99.90;;;;;;5069485;28;20215;-74
2023/07/31 07:07:09;;;;;;;4.82;2.97;;;20.00;99.90;;;;;;5072281;28;20231;-74
2023/07/31 07:09:59;;;;;;;9.63;3.60;;;20.10;99.90;;;;;;5080659;28;20239;-74
2023/07/31 07:12:48;;;;;;;7.47;3.42;;;20.20;99.90;;;;;;5077633;28;20224;-74
2023/07/31 07:15:37;;;;;;;7.90;3.55;;;20.40;99.90;;;;;;5064990;28;20235;-74
2023/07/31 07:18:27;;;;;;;5.60;3.30;;;20.60;99.90;;;;;;5069233;28;20242;-74
2023/07/31 07:21:17;;;;;;;6.78;3.60;;;20.60;99.90;;;;;;5074869;28;20235;-74
2023/07/31 07:24:08;;;;;;;5.85;3.78;;;20.90;99.90;;;;;;5076089;28;20753;-74
2023/07/31 07:26:56;;;;;;;4.97;3.17;;;21.00;99.90;;;;;;5077178;28;20309;-74
2023/07/31 07:29:46;;;;;;;6.60;3.30;;;21.10;99.90;;;;;;5072697;28;20219;-75
2023/07/31 07:32:35;;;;;;;6.38;3.60;;;21.20;99.90;;;;;;5071551;28;20247;-74
2023/07/31 07:35:24;;;;;;;8.07;4.28;;;21.60;99.90;;;;;;5059319;28;20242;-75
2023/07/31 07:38:14;;;;;;;5.20;3.35;;;22.10;99.90;;;;;;5073366;28;20630;-74
2023/07/31 07:41:04;;;;;;;6.05;3.42;;;22.50;99.90;;;;;;5073516;28;20237;-74
2023/07/31 07:43:53;;;;;;;8.35;3.13;;;22.60;99.90;;;;;;5060880;28;20369;-74
2023/07/31 07:46:42;;;;;;;8.82;3.08;;;22.90;99.90;;;;;;5075725;28;20285;-75
2023/07/31 07:49:31;;;;;;;5.07;3.05;;;23.00;99.90;;;;;;5063827;28;20296;-75
2023/07/31 07:52:20;;;;;;;4.80;2.97;;;23.10;99.90;;;;;;5052367;28;20235;-75
2023/07/31 07:55:09;;;;;;;4.00;3.10;;;23.20;99.90;;;;;;5074725;28;20242;-74
2023/07/31 07:58:00;;;;;;;4.55;2.80;;;23.20;99.90;;;;;;5067247;28;20212;-75
2023/07/31 08:00:51;;;;;;;5.20;3.20;;;23.30;99.90;;;;;;5065917;28;20239;-74
2023/07/31 08:03:40;;;;;;;5.15;2.60;;;23.50;99.90;;;;;;5052051;28;20212;-73
2023/07/31 08:06:30;;;;;;;6.32;2.83;;;23.70;99.90;;;;;;5051330;28;20220;-76
2023/07/31 08:09:19;;;;;;;7.82;3.15;;;23.90;99.90;;;;;;5053917;28;20223;-76
2023/07/31 08:12:08;;;;;;;10.77;3.10;;;23.80;99.90;;;;;;5056316;28;20220;-73
2023/07/31 08:14:59;;;;;;;7.70;3.08;;;24.30;99.90;;;;;;5059509;28;20223;-72
2023/07/31 08:17:48;;;;;;;3.28;2.75;;;25.00;99.90;;;;;;5053137;28;20228;-73
2023/07/31 08:20:37;;;;;;;4.55;2.53;;;25.80;99.90;;;;;;5056800;28;20306;-72
2023/07/31 08:23:27;;;;;;;5.28;2.60;;;26.00;99.90;;;;;;5063506;28;20232;-74
2023/07/31 08:26:17;;;;;;;5.90;2.50;;;25.50;99.90;;;;;;5059466;28;20223;-72
2023/07/31 08:29:06;;;;;;;5.10;3.00;;;25.90;99.90;;;;;;5053923;28;20699;-72
2023/07/31 08:31:57;;;;;;;5.35;2.63;;;26.60;99.90;;;;;;5053502;28;20239;-71
2023/07/31 08:34:46;;;;;;;5.63;2.70;;;27.30;99.90;;;;;;5063894;28;20289;-72
2023/07/31 08:37:34;;;;;;;4.55;2.80;;;27.50;99.90;;;;;;5042316;28;20277;-71
2023/07/31 08:40:24;;;;;;;7.32;3.08;;;27.40;99.90;;;;;;5055179;28;20232;-72
2023/07/31 08:43:13;;;;;;;7.55;2.95;;;27.30;99.90;;;;;;5043138;28;20227;-72
2023/07/31 08:46:03;;;;;;;4.40;2.80;;;27.60;99.90;;;;;;5058925;28;20251;-71
2023/07/31 08:48:56;;;;;;;3.88;2.63;;;27.70;99.90;;;;;;5060615;28;20293;-71
2023/07/31 08:51:47;;;;;;;4.40;2.60;;;27.80;99.90;;;;;;5058996;28;20253;-75
2023/07/31 08:54:36;;;;;;;5.75;2.60;;;28.00;99.90;;;;;;5046382;28;20235;-74
2023/07/31 08:57:28;;;;;;;4.80;2.65;;;28.40;99.90;;;;;;5055815;28;20793;-74
2023/07/31 09:00:17;;;;;;;5.80;2.97;;;28.90;99.90;;;;;;5045710;28;20314;-75
2023/07/31 09:03:10;;;;;;;5.80;2.53;;;29.20;99.90;;;;;;5074577;28;20219;-74
2023/07/31 09:06:02;;;;;;;7.25;3.17;;;28.10;99.90;;;;;;5071880;28;20699;-75
2023/07/31 09:08:51;;;;;;;4.07;2.95;;;27.40;99.90;;;;;;5078924;28;20729;-71
2023/07/31 09:11:41;;;;;;;5.55;2.70;;;27.00;99.90;;;;;;5071624;28;20228;-71
2023/07/31 09:14:30;;;;;;;5.28;2.40;;;27.40;99.90;;;;;;5074750;28;20274;-71
2023/07/31 09:17:30;;;;;;;5.25;2.45;;;28.30;99.90;;;;;;5063287;28;20229;-71
2023/07/31 09:20:20;;;;;;;7.95;4.63;;;28.30;99.90;;;;;;5072017;28;20256;-71
2023/07/31 09:23:12;;;;;;;5.50;2.90;;;28.80;99.90;;;;;;5075098;28;20224;-72
2023/07/31 09:26:01;;;;;;;6.13;2.85;;;29.50;99.90;;;;;;5059322;28;20322;-71
2023/07/31 09:28:50;;;;;;;6.60;2.83;;;29.60;99.90;;;;;;5072943;28;20785;-71
2023/07/31 09:31:43;;;;;;;6.97;2.50;;;30.20;99.90;;;;;;5078082;28;20327;-70
2023/07/31 09:34:39;;;;;;;6.55;2.78;;;30.80;99.90;;;;;;5073438;28;20230;-77
2023/07/31 09:37:33;;;;;;;6.82;2.78;;;30.10;99.90;;;;;;5072172;28;20233;-77
2023/07/31 09:40:30;;;;;;;4.75;2.75;;;29.20;99.90;;;;;;5065733;28;20592;-77
2023/07/31 09:43:21;;;;;;;6.90;5.05;;;29.20;99.90;;;;;;5059537;28;20370;-77
2023/07/31 09:46:15;;;;;;;9.32;5.88;;;28.50;99.90;;;;;;5080183;28;20788;-73
2023/07/31 09:49:09;;;;;;;5.35;2.47;;;29.60;99.90;;;;;;5064371;28;20721;-76
2023/07/31 09:52:00;;;;;;;8.27;2.45;;;29.90;99.90;;;;;;5071883;28;20306;-74
2023/07/31 09:54:51;;;;;;;5.70;1.98;;;31.00;98.80;;;;;;5061902;28;20223;-75
2023/07/31 09:57:46;;;;;;;4.57;1.85;;;31.60;97.00;;;;;;5077687;28;20235;-76
2023/07/31 10:00:36;;;;;;;5.65;2.08;;;32.30;96.10;;;;;;5058029;28;20231;-77
2023/07/31 10:03:26;;;;;;;2.33;1.75;;;31.80;95.50;;;;;;5069640;28;20226;-77
2023/07/31 10:06:19;;;;;;;5.32;1.92;;;34.10;94.20;;;;;;5063253;28;20257;-76
2023/07/31 10:09:10;;;;;;;6.78;2.10;;;34.00;91.70;;;;;;5078746;28;20222;-74
2023/07/31 10:12:01;;;;;;;4.43;2.00;;;33.00;90.60;;;;;;5074469;28;20228;-74
2023/07/31 10:14:55;;;;;;;3.58;1.98;;;34.00;89.80;;;;;;5078712;28;20215;-71
2023/07/31 10:17:44;;;;;;;2.38;1.60;;;35.40;86.60;;;;;;5076044;28;20233;-73
2023/07/31 10:20:34;;;;;;;3.50;1.50;;;35.80;81.10;;;;;;5074780;28;20251;-74
2023/07/31 10:23:24;;;;;;;2.90;1.85;;;33.50;81.50;;;;;;5056894;28;20227;-74
2023/07/31 10:26:15;;;;;;;3.67;1.83;;;32.90;82.00;;;;;;5082599;28;20250;-74
2023/07/31 10:29:05;;;;;;;2.60;1.90;;;34.20;81.90;;;;;;5073130;28;20223;-76
2023/07/31 10:31:58;;;;;;;3.88;2.00;;;33.60;80.70;;;;;;5059416;28;20281;-74
2023/07/31 10:34:48;;;;;;;4.15;2.03;;;33.90;76.00;;;;;;5072925;28;20228;-74
2023/07/31 10:37:40;;;;;;;4.38;1.77;;;35.00;76.20;;;;;;5063801;28;20356;-75
2023/07/31 10:40:29;;;;;;;2.58;1.50;;;35.70;78.30;;;;;;5075674;28;20226;-75
2023/07/31 10:43:26;;;;;;;3.95;1.70;;;37.20;75.80;;;;;;5071444;28;20316;-75
2023/07/31 10:46:16;;;;;;;4.10;1.50;;;37.70;68.00;;;;;;5069623;28;20673;-75
2023/07/31 10:49:06;;;;;;;2.13;1.40;;;38.80;69.30;;;;;;5063997;28;20360;-75
2023/07/31 10:51:57;;;;;;;9.43;1.90;;;36.50;66.00;;;;;;5073612;28;20360;-75
2023/07/31 10:54:46;;;;;;;3.47;1.50;;;37.10;64.70;;;;;;5076606;28;20610;-76
2023/07/31 10:57:37;;;;;;;4.22;1.95;;;34.30;67.80;;;;;;5074147;28;20226;-75
2023/07/31 11:00:28;;;;;;;3.40;1.77;;;35.20;70.20;;;;;;5069781;28;20223;-75
2023/07/31 11:03:22;;;;;;;3.15;1.83;;;34.90;69.20;;;;;;5054181;28;20215;-75
2023/07/31 11:06:13;;;;;;;3.38;1.40;;;34.70;68.60;;;;;;5052372;28;22056;-75
2023/07/31 11:09:06;;;;;;;3.17;1.50;;;34.50;67.60;;;;;;5065588;28;20223;-74
2023/07/31 11:11:55;;;;;;;2.65;1.60;;;34.30;68.60;;;;;;5075049;28;20223;-74
2023/07/31 11:14:44;;;;;;;3.45;1.65;;;33.40;69.40;;;;;;5077426;28;20223;-74
2023/07/31 11:17:33;;;;;;;3.65;1.30;;;33.10;72.00;;;;;;5076239;28;20223;-75
2023/07/31 11:20:22;;;;;;;1.77;1.48;;;34.00;67.80;;;;;;5060024;28;20269;-76
2023/07/31 11:23:13;;;;;;;3.20;1.85;;;34.90;66.60;;;;;;5078211;28;20310;-75
2023/07/31 11:26:02;;;;;;;4.65;1.77;;;36.60;65.00;;;;;;5075683;28;20229;-75
2023/07/31 11:28:52;;;;;;;4.82;1.75;;;38.20;65.00;;;;;;5072424;28;20235;-75
2023/07/31 11:31:43;;;;;;;4.45;1.77;;;38.80;57.60;;;;;;5076210;28;20238;-75
2023/07/31 11:34:32;;;;;;;3.75;1.40;;;37.60;62.30;;;;;;5058173;28;20264;-75
2023/07/31 11:37:22;;;;;;;2.15;1.33;;;36.80;60.50;;;;;;5065504;28;20234;-76
2023/07/31 11:40:17;;;;;;;3.05;1.67;;;35.60;59.20;;;;;;5062348;28;20416;-75
2023/07/31 11:43:11;;;;;;;4.10;1.40;;;34.30;64.40;;;;;;5075355;28;20233;-75
2023/07/31 11:46:02;;;;;;;3.03;1.70;;;33.50;65.90;;;;;;5057216;28;20219;-75
2023/07/31 11:48:52;;;;;;;4.35;1.70;;;32.50;69.90;;;;;;5063520;28;20594;-74
2023/07/31 11:51:41;;;;;;;2.83;1.70;;;32.10;70.60;;;;;;5077427;28;20756;-75
2023/07/31 11:54:30;;;;;;;3.05;1.83;;;31.40;67.00;;;;;;5076051;28;20321;-75
2023/07/31 11:57:22;;;;;;;4.65;1.73;;;30.60;72.70;;;;;;5061534;28;20613;-75
2023/07/31 12:00:13;;;;;;;3.42;1.40;;;30.20;69.00;;;;;;5078280;28;20689;-75
2023/07/31 12:03:02;;;;;;;4.85;1.88;;;29.80;76.70;;;;;;5054207;28;20678;-75
2023/07/31 12:05:51;;;;;;;3.75;1.50;;;29.10;76.70;;;;;;5060313;28;20282;-74
2023/07/31 12:08:40;;;;;;;4.35;2.05;;;28.90;81.10;;;;;;5078752;28;20260;-76
2023/07/31 12:11:31;;;;;;;3.92;1.58;;;28.90;80.60;;;;;;5060235;28;20225;-74
2023/07/31 12:14:24;;;;;;;4.13;1.60;;;28.60;82.30;;;;;;5066264;28;20223;-74
2023/07/31 12:17:16;;;;;;;4.53;3.58;;;28.30;82.20;;;;;;5066443;28;20221;-75
2023/07/31 12:20:07;;;;;;;6.28;5.28;;;28.10;80.60;;;;;;5073905;28;20226;-75
2023/07/31 12:22:58;;;;;;;4.20;2.05;;;28.40;86.20;;;;;;5053450;28;20765;-75
2023/07/31 12:25:47;;;;;;;8.30;3.05;;;28.60;82.10;;;;;;5069357;28;20234;-75
2023/07/31 12:28:38;;;;;;;4.75;2.38;;;28.90;86.70;;;;;;5077171;28;20223;-75
2023/07/31 12:31:30;;;;;;;2.70;2.00;;;29.20;84.00;;;;;;5062794;28;20246;-75
2023/07/31 12:34:21;;;;;;;6.50;2.45;;;28.70;79.50;;;;;;5073378;28;20308;-75
2023/07/31 12:37:10;;;;;;;4.65;2.38;;;29.00;84.40;;;;;;5067958;28;20234;-75
2023/07/31 12:40:03;;;;;;;3.10;2.05;;;28.80;79.70;;;;;;5061776;28;20356;-74
2023/07/31 12:43:01;;;;;;;4.00;2.00;;;28.00;83.40;;;;;;5066176;28;20231;-74
2023/07/31 12:45:50;;;;;;;3.08;1.80;;;27.60;87.80;;;;;;5077951;28;20221;-74
2023/07/31 12:48:44;;;;;;;4.57;1.92;;;27.40;88.30;;;;;;5073774;28;20212;-77
2023/07/31 12:51:33;;;;;;;3.65;1.95;;;27.30;86.50;;;;;;5058889;28;20855;-74
2023/07/31 12:54:22;;;;;;;5.97;2.50;;;27.20;91.30;;;;;;5070935;28;20605;-74
2023/07/31 12:57:11;;;;;;;4.25;2.00;;;26.90;90.00;;;;;;5074570;28;20222;-75
2023/07/31 13:00:00;;;;;;;4.70;1.85;;;27.00;91.30;;;;;;5060504;28;20219;-74
2023/07/31 13:02:49;;;;;;;5.85;1.85;;;26.90;85.80;;;;;;5041422;28;20234;-74
2023/07/31 13:05:43;;;;;;;3.15;2.10;;;26.80;89.70;;;;;;5048905;28;20215;-74
2023/07/31 13:08:31;;;;;;;3.80;2.22;;;26.90;91.90;;;;;;5039463;28;20935;-74
2023/07/31 13:11:21;;;;;;;4.97;1.95;;;27.20;90.30;;;;;;5054373;28;20643;-75
2023/07/31 13:14:11;;;;;;;6.88;2.15;;;27.40;91.50;;;;;;5057533;28;20230;-75
2023/07/31 13:16:59;;;;;;;5.60;1.90;;;27.30;89.40;;;;;;5047443;28;20284;-75
2023/07/31 13:19:50;;;;;;;20.60;2.38;;;27.30;85.80;;;;;;5038717;28;20223;-75
2023/07/31 13:22:43;;;;;;;2.53;1.50;;;27.00;79.40;;;;;;5042814;28;20303;-75
2023/07/31 13:25:34;;;;;;;6.53;2.17;;;26.80;84.30;;;;;;5055988;28;20669;-75
2023/07/31 13:28:23;;;;;;;3.60;2.03;;;26.70;85.70;;;;;;5056056;28;20397;-75
2023/07/31 13:31:12;;;;;;;3.83;2.00;;;26.80;83.00;;;;;;5055286;28;20255;-75
2023/07/31 13:34:02;;;;;;;6.47;3.05;;;26.70;82.70;;;;;;5035863;28;20273;-75
2023/07/31 13:36:51;;;;;;;5.90;2.60;;;26.60;86.00;;;;;;5054323;28;20630;-75
2023/07/31 13:39:43;;;;;;;3.30;2.08;;;26.40;84.10;;;;;;5041917;28;20737;-75
2023/07/31 13:42:32;;;;;;;2.30;1.52;;;26.50;87.60;;;;;;5046726;28;20316;-75
2023/07/31 13:45:23;;;;;;;3.15;2.00;;;26.50;81.50;;;;;;5056644;28;20232;-74
2023/07/31 13:48:11;;;;;;;7.60;3.13;;;26.50;82.50;;;;;;5047728;28;20238;-74
2023/07/31 13:51:01;;;;;;;6.18;3.78;;;26.30;81.20;;;;;;5054599;28;20319;-74
2023/07/31 13:53:49;;;;;;;8.13;2.97;;;26.30;81.40;;;;;;5053472;28;20226;-75
2023/07/31 13:56:40;;;;;;;8.07;2.97;;;26.20;85.30;;;;;;5044018;28;20610;-74
2023/07/31 13:59:29;;;;;;;8.05;3.03;;;26.20;87.60;;;;;;5045138;28;20223;-72
2023/07/31 14:02:21;;;;;;;4.55;2.80;;;26.00;86.80;;;;;;5060853;28;20356;-74
2023/07/31 14:05:10;;;;;;;4.28;2.00;;;26.00;87.90;;;;;;5073817;28;20261;-75
2023/07/31 14:07:59;;;;;;;4.90;2.10;;;26.00;83.80;;;;;;5074672;28;20219;-74
2023/07/31 14:10:48;;;;;;;5.43;2.40;;;25.80;85.80;;;;;;5075670;28;20283;-74
2023/07/31 14:13:38;;;;;;;4.75;2.00;;;25.70;87.70;;;;;;5064921;28;20223;-74
2023/07/31 14:16:28;;;;;;;7.80;2.65;;;25.60;86.30;;;;;;5070040;28;20355;-71
2023/07/31 14:19:20;;;;;;;6.60;2.80;;;25.70;88.90;;;;;;5073725;28;20234;-71
2023/07/31 14:22:09;;;;;;;4.68;2.10;;;25.80;92.00;;;;;;5075449;28;20236;-70
2023/07/31 14:24:59;;;;;;;4.68;2.30;;;25.70;86.60;;;;;;5072000;28;20262;-71
2023/07/31 14:27:48;;;;;;;4.40;2.10;;;25.70;90.40;;;;;;5064796;28;20227;-71
2023/07/31 14:30:39;;;;;;;2.72;1.90;;;25.80;90.40;;;;;;5072442;28;20235;-71
2023/07/31 14:33:27;;;;;;;6.20;2.00;;;25.70;89.50;;;;;;5077609;28;20235;-70
2023/07/31 14:36:16;;;;;;;6.65;1.98;;;25.70;88.80;;;;;;5074233;28;21112;-71
2023/07/31 14:39:05;;;;;;;8.10;2.80;;;25.70;89.00;;;;;;5073682;28;20319;-71
2023/07/31 14:41:54;;;;;;;6.90;2.75;;;25.70;89.80;;;;;;5074340;28;20823;-71
2023/07/31 14:44:43;;;;;;;5.40;2.15;;;25.70;92.00;;;;;;5071624;28;20242;-72
2023/07/31 14:47:34;;;;;;;5.57;2.40;;;25.80;89.50;;;;;;5063226;28;20219;-72